Viking Queen — WDB9919 — position and weather

sailwx.info

Track history (hours):
 
Tides and Currents Weather Stations Pressure Air Temp Water Temp Dewpoint Dewpoint Depression Visibility Wind Speed Wind Dir Waves Ship Positions

Viking Queen

Owner: American River Transportation Company, St Louis, MO. More information available from US FCC via Universal Licensing System and Coast Guard Vessel Documentation Center.

Last reported at 2016-Jul-27 01:15 UTC. Time now 2016-Jul-27 21:09 UTC.
Position N 32°54' W 091°04'.

; draft 3.2 m.

Type: Towing. MMSI: 366985050.

Date/timePositionNaut miles runAvg speedWind from/ knotsBaromVisibWave heightAir tempDewpointWater temp
2016-Jul-27 01:15N 32°54' W 091°04'9 5.2
2016-Jul-26 23:33N 32°47' W 091°09'5 4.3
2016-Jul-26 22:30N 32°44' W 091°05'4 3.9
2016-Jul-26 21:22N 32°40' W 091°07'4 4.7
2016-Jul-26 20:34N 32°37' W 091°09'6 5.5
2016-Jul-26 19:34N 32°32' W 091°06'5 5.3
2016-Jul-26 18:34N 32°27' W 091°04'5 4.9
2016-Jul-26 17:34N 32°23' W 090°60'5 4.5
2016-Jul-26 16:34N 32°21' W 090°55'4 4.4
2016-Jul-26 15:33N 32°17' W 090°57'5 5.5
2016-Jul-26 14:34N 32°12' W 090°60'5 4.9
2016-Jul-26 13:34N 32°07' W 091°03'3 2.7
2016-Jul-26 12:32N 32°05' W 091°05'5 5.3
2016-Jul-26 11:31N 32°00' W 091°05'6 5.5
2016-Jul-26 10:31N 31°58' W 091°11'11 5.1
2016-Jul-26 08:23N 31°50' W 091°21'125 2.5
2016-Jul-24 07:13N 29°56' W 090°22'111 3.9
2016-Jul-23 03:08N 31°30' W 091°31'5 7.6
2016-Jul-23 02:30N 31°33' W 091°26'8 7.9
2016-Jul-23 01:30N 31°40' W 091°24'11 8.2
2016-Jul-23 00:09N 31°51' W 091°21'12 7.2
2016-Jul-22 22:33N 31°59' W 091°10'7 7.4
2016-Jul-22 21:33N 32°03' W 091°03'5 5.3
2016-Jul-22 20:34N 32°08' W 091°06'6 5.8
2016-Jul-22 19:33N 32°11' W 090°60'8 8.1
2016-Jul-22 18:34N 32°18' W 090°55'3 3.3
2016-Jul-22 17:33N 32°21' W 090°56'6 6.3
2016-Jul-22 16:34N 32°26' W 091°01'7 6.9
2016-Jul-22 15:34N 32°31' W 091°06'9 7.4
2016-Jul-22 14:22N 32°40' W 091°08'  
Track history (hours):
 
Tides and Currents Weather Stations Pressure Air Temp Water Temp Dewpoint Dewpoint Depression Visibility Wind Speed Wind Dir Waves Ship Positions

Viking Queen

Owner: American River Transportation Company, St Louis, MO. More information available from US FCC via Universal Licensing System and Coast Guard Vessel Documentation Center.

Last reported at 2016-Jul-27 01:15 UTC. Time now 2016-Jul-27 21:09 UTC.
Position N 32°54' W 091°04'.

; draft 3.2 m.

Type: Towing. MMSI: 366985050.

Date/timePositionNaut miles runAvg speedWind from/ knotsBaromVisibWave heightAir tempDewpointWater temp
2016-Jul-27 01:15N 32°54' W 091°04'9 5.2
2016-Jul-26 23:33N 32°47' W 091°09'5 4.3
2016-Jul-26 22:30N 32°44' W 091°05'4 3.9
2016-Jul-26 21:22N 32°40' W 091°07'4 4.7
2016-Jul-26 20:34N 32°37' W 091°09'6 5.5
2016-Jul-26 19:34N 32°32' W 091°06'5 5.3
2016-Jul-26 18:34N 32°27' W 091°04'5 4.9
2016-Jul-26 17:34N 32°23' W 090°60'5 4.5
2016-Jul-26 16:34N 32°21' W 090°55'4 4.4
2016-Jul-26 15:33N 32°17' W 090°57'5 5.5
2016-Jul-26 14:34N 32°12' W 090°60'5 4.9
2016-Jul-26 13:34N 32°07' W 091°03'3 2.7
2016-Jul-26 12:32N 32°05' W 091°05'5 5.3
2016-Jul-26 11:31N 32°00' W 091°05'6 5.5
2016-Jul-26 10:31N 31°58' W 091°11'11 5.1
2016-Jul-26 08:23N 31°50' W 091°21'125 2.5
2016-Jul-24 07:13N 29°56' W 090°22'111 3.9
2016-Jul-23 03:08N 31°30' W 091°31'5 7.6
2016-Jul-23 02:30N 31°33' W 091°26'8 7.9
2016-Jul-23 01:30N 31°40' W 091°24'11 8.2
2016-Jul-23 00:09N 31°51' W 091°21'12 7.2
2016-Jul-22 22:33N 31°59' W 091°10'7 7.4
2016-Jul-22 21:33N 32°03' W 091°03'5 5.3
2016-Jul-22 20:34N 32°08' W 091°06'6 5.8
2016-Jul-22 19:33N 32°11' W 090°60'8 8.1
2016-Jul-22 18:34N 32°18' W 090°55'3 3.3
2016-Jul-22 17:33N 32°21' W 090°56'6 6.3
2016-Jul-22 16:34N 32°26' W 091°01'7 6.9
2016-Jul-22 15:34N 32°31' W 091°06'9 7.4
2016-Jul-22 14:22N 32°40' W 091°08'  

Dump ship's entire track history